La Loche, Canada
Current Conditions -  °F | °C
As of 10:00 PM on Saturday 22 Nov 2014 (Local Time) from CYVT Reporting Station
Light Snow Light Snow  
Wind Chill:   Ceiling: 400
Heat Index: 10°   Visibility: 12mi
Dew Point:   Wind: 7mph
Humidity: 85%   Direction: 100°E
Pressure: 29.63"   Gusts: NA
Location:  56.48°N, 109.43°W
Report Text: CYVT 230400Z 10006KT 12SM -SN BKN004 OVC012 M12/M14 A2963 RMK ST5SC3 SN COV/MUCH LOOSE LAST STFD OBS/NEXT 231200UTC SLP070
Loading
Personal Weather Stations






























Interactive Weather Map New forecast layout! Learn more

10-Day Weather Forecast

Advertisements
Track Severe Weather on mobile